sensor_id;sensor_type;location;lat;lon;timestamp;pressure;altitude;pressure_sealevel;temperature;humidity
69751;BME280;57335;52.288;6.056;2023-11-21T00:02:26;101010.72;;;7.06;100.00
69751;BME280;57335;52.288;6.056;2023-11-21T00:04:54;101006.88;;;7.02;100.00
69751;BME280;57335;52.288;6.056;2023-11-21T00:07:20;101010.28;;;7.03;100.00
69751;BME280;57335;52.288;6.056;2023-11-21T00:09:48;101030.88;;;7.12;100.00
69751;BME280;57335;52.288;6.056;2023-11-21T00:12:17;101025.09;;;7.02;100.00
69751;BME280;57335;52.288;6.056;2023-11-21T00:14:44;101036.16;;;7.04;100.00
69751;BME280;57335;52.288;6.056;2023-11-21T00:17:11;101018.72;;;6.90;100.00
69751;BME280;57335;52.288;6.056;2023-11-21T00:19:38;101044.50;;;6.99;100.00
69751;BME280;57335;52.288;6.056;2023-11-21T00:22:07;101018.66;;;6.75;100.00
69751;BME280;57335;52.288;6.056;2023-11-21T00:24:34;101048.00;;;6.92;100.00
69751;BME280;57335;52.288;6.056;2023-11-21T00:27:01;101027.19;;;6.69;100.00
69751;BME280;57335;52.288;6.056;2023-11-21T00:29:28;101057.09;;;6.73;100.00
69751;BME280;57335;52.288;6.056;2023-11-21T00:31:54;101047.56;;;6.65;100.00
69751;BME280;57335;52.288;6.056;2023-11-21T00:34:23;101052.97;;;6.64;100.00
69751;BME280;57335;52.288;6.056;2023-11-21T00:36:50;101049.09;;;6.59;100.00
69751;BME280;57335;52.288;6.056;2023-11-21T00:39:16;101039.53;;;6.52;100.00
69751;BME280;57335;52.288;6.056;2023-11-21T00:41:43;101053.34;;;6.52;100.00
69751;BME280;57335;52.288;6.056;2023-11-21T00:44:11;101057.75;;;6.52;100.00
69751;BME280;57335;52.288;6.056;2023-11-21T00:46:37;101059.91;;;6.48;100.00
69751;BME280;57335;52.288;6.056;2023-11-21T00:49:04;101048.72;;;6.39;100.00
69751;BME280;57335;52.288;6.056;2023-11-21T00:51:30;101058.63;;;6.44;100.00
69751;BME280;57335;52.288;6.056;2023-11-21T00:53:57;101062.81;;;6.45;100.00
69751;BME280;57335;52.288;6.056;2023-11-21T00:56:24;101056.81;;;6.45;100.00
69751;BME280;57335;52.288;6.056;2023-11-21T00:58:50;101066.53;;;6.51;100.00
69751;BME280;57335;52.288;6.056;2023-11-21T01:01:19;101063.25;;;6.57;100.00
69751;BME280;57335;52.288;6.056;2023-11-21T01:03:46;101057.13;;;6.50;100.00
69751;BME280;57335;52.288;6.056;2023-11-21T01:06:13;101076.72;;;6.61;100.00
69751;BME280;57335;52.288;6.056;2023-11-21T01:08:42;101071.34;;;6.62;100.00
69751;BME280;57335;52.288;6.056;2023-11-21T01:11:08;101077.03;;;6.66;100.00
69751;BME280;57335;52.288;6.056;2023-11-21T01:13:36;101092.28;;;6.69;100.00
69751;BME280;57335;52.288;6.056;2023-11-21T01:16:03;101096.34;;;6.71;100.00
69751;BME280;57335;52.288;6.056;2023-11-21T01:18:30;101098.94;;;6.71;100.00
69751;BME280;57335;52.288;6.056;2023-11-21T01:20:56;101098.94;;;6.71;100.00
69751;BME280;57335;52.288;6.056;2023-11-21T01:23:23;101112.09;;;6.78;100.00
69751;BME280;57335;52.288;6.056;2023-11-21T01:25:50;101119.38;;;6.83;100.00
69751;BME280;57335;52.288;6.056;2023-11-21T01:28:18;101108.31;;;6.81;100.00
69751;BME280;57335;52.288;6.056;2023-11-21T01:30:44;101113.00;;;6.85;100.00
69751;BME280;57335;52.288;6.056;2023-11-21T01:33:11;101106.81;;;6.86;100.00
69751;BME280;57335;52.288;6.056;2023-11-21T01:35:38;101099.97;;;6.85;100.00
69751;BME280;57335;52.288;6.056;2023-11-21T01:38:04;101100.28;;;6.90;100.00
69751;BME280;57335;52.288;6.056;2023-11-21T01:40:31;101110.16;;;6.95;100.00
69751;BME280;57335;52.288;6.056;2023-11-21T01:42:58;101079.66;;;6.81;100.00
69751;BME280;57335;52.288;6.056;2023-11-21T01:45:24;101091.81;;;6.88;100.00
69751;BME280;57335;52.288;6.056;2023-11-21T01:47:52;101088.84;;;6.91;100.00
69751;BME280;57335;52.288;6.056;2023-11-21T01:50:22;101099.41;;;6.98;100.00
69751;BME280;57335;52.288;6.056;2023-11-21T01:52:49;101101.13;;;7.06;100.00
69751;BME280;57335;52.288;6.056;2023-11-21T01:55:17;101092.06;;;7.02;100.00
69751;BME280;57335;52.288;6.056;2023-11-21T01:57:54;101105.34;;;7.07;100.00
69751;BME280;57335;52.288;6.056;2023-11-21T02:00:21;101101.13;;;7.06;100.00
69751;BME280;57335;52.288;6.056;2023-11-21T02:02:50;101114.59;;;7.09;100.00
69751;BME280;57335;52.288;6.056;2023-11-21T02:05:18;101109.59;;;7.08;100.00
69751;BME280;57335;52.288;6.056;2023-11-21T02:07:46;101111.66;;;7.12;100.00
69751;BME280;57335;52.288;6.056;2023-11-21T02:10:15;101112.19;;;7.08;100.00
69751;BME280;57335;52.288;6.056;2023-11-21T02:12:43;101116.41;;;7.09;100.00
69751;BME280;57335;52.288;6.056;2023-11-21T02:15:12;101122.41;;;7.09;100.00
69751;BME280;57335;52.288;6.056;2023-11-21T02:17:42;101124.06;;;7.10;100.00
69751;BME280;57335;52.288;6.056;2023-11-21T02:20:13;101131.50;;;7.13;100.00
69751;BME280;57335;52.288;6.056;2023-11-21T02:22:49;101126.94;;;7.15;100.00
69751;BME280;57335;52.288;6.056;2023-11-21T02:25:16;101123.81;;;7.20;100.00
69751;BME280;57335;52.288;6.056;2023-11-21T02:27:42;101131.97;;;7.17;100.00
69751;BME280;57335;52.288;6.056;2023-11-21T02:30:09;101131.63;;;7.20;100.00
69751;BME280;57335;52.288;6.056;2023-11-21T02:32:39;101132.59;;;7.19;100.00
69751;BME280;57335;52.288;6.056;2023-11-21T02:35:14;101142.31;;;7.25;100.00
69751;BME280;57335;52.288;6.056;2023-11-21T02:37:42;101144.31;;;7.23;100.00
69751;BME280;57335;52.288;6.056;2023-11-21T02:40:10;101150.34;;;7.24;100.00
69751;BME280;57335;52.288;6.056;2023-11-21T02:42:39;101141.34;;;7.26;100.00
69751;BME280;57335;52.288;6.056;2023-11-21T02:45:07;101144.94;;;7.25;100.00
69751;BME280;57335;52.288;6.056;2023-11-21T02:47:35;101145.13;;;7.24;100.00
69751;BME280;57335;52.288;6.056;2023-11-21T02:50:01;101139.56;;;7.27;100.00
69751;BME280;57335;52.288;6.056;2023-11-21T02:52:28;101135.50;;;7.24;100.00
69751;BME280;57335;52.288;6.056;2023-11-21T02:54:54;101137.25;;;7.32;100.00
69751;BME280;57335;52.288;6.056;2023-11-21T02:57:21;101146.03;;;7.31;100.00
69751;BME280;57335;52.288;6.056;2023-11-21T02:59:47;101136.13;;;7.26;100.00
69751;BME280;57335;52.288;6.056;2023-11-21T03:02:14;101136.41;;;7.31;100.00
69751;BME280;57335;52.288;6.056;2023-11-21T03:04:42;101131.19;;;7.31;100.00
69751;BME280;57335;52.288;6.056;2023-11-21T03:07:09;101141.38;;;7.41;100.00
69751;BME280;57335;52.288;6.056;2023-11-21T03:09:36;101145.41;;;7.44;100.00
69751;BME280;57335;52.288;6.056;2023-11-21T03:12:02;101146.06;;;7.46;100.00
69751;BME280;57335;52.288;6.056;2023-11-21T03:14:29;101134.97;;;7.44;100.00
69751;BME280;57335;52.288;6.056;2023-11-21T03:16:55;101143.91;;;7.49;100.00
69751;BME280;57335;52.288;6.056;2023-11-21T03:19:23;101135.66;;;7.46;100.00
69751;BME280;57335;52.288;6.056;2023-11-21T03:21:50;101145.38;;;7.52;100.00
69751;BME280;57335;52.288;6.056;2023-11-21T03:24:19;101142.75;;;7.52;100.00
69751;BME280;57335;52.288;6.056;2023-11-21T03:26:46;101145.16;;;7.53;100.00
69751;BME280;57335;52.288;6.056;2023-11-21T03:29:16;101148.22;;;7.57;100.00
69751;BME280;57335;52.288;6.056;2023-11-21T03:31:43;101156.34;;;7.62;100.00
69751;BME280;57335;52.288;6.056;2023-11-21T03:34:15;101156.16;;;7.64;100.00
69751;BME280;57335;52.288;6.056;2023-11-21T03:36:43;101145.38;;;7.67;100.00
69751;BME280;57335;52.288;6.056;2023-11-21T03:39:09;101154.00;;;7.67;100.00
69751;BME280;57335;52.288;6.056;2023-11-21T03:41:36;101154.00;;;7.67;100.00
69751;BME280;57335;52.288;6.056;2023-11-21T03:44:02;101165.97;;;7.76;100.00
69751;BME280;57335;52.288;6.056;2023-11-21T03:46:29;101167.59;;;7.77;100.00
69751;BME280;57335;52.288;6.056;2023-11-21T03:48:55;101166.78;;;7.77;100.00
69751;BME280;57335;52.288;6.056;2023-11-21T03:51:22;101165.97;;;7.76;100.00
69751;BME280;57335;52.288;6.056;2023-11-21T03:53:48;101169.56;;;7.75;100.00
69751;BME280;57335;52.288;6.056;2023-11-21T03:56:15;101163.00;;;7.79;100.00
69751;BME280;57335;52.288;6.056;2023-11-21T03:58:41;101154.75;;;7.76;100.00
69751;BME280;57335;52.288;6.056;2023-11-21T04:01:08;101165.25;;;7.83;100.00
69751;BME280;57335;52.288;6.056;2023-11-21T04:03:34;101181.44;;;7.93;100.00
69751;BME280;57335;52.288;6.056;2023-11-21T04:06:02;101179.31;;;7.96;100.00
69751;BME280;57335;52.288;6.056;2023-11-21T04:08:29;101166.16;;;7.90;100.00
69751;BME280;57335;52.288;6.056;2023-11-21T04:10:55;101178.75;;;8.01;100.00
69751;BME280;57335;52.288;6.056;2023-11-21T04:13:22;101193.69;;;8.07;100.00
69751;BME280;57335;52.288;6.056;2023-11-21T04:15:49;101168.41;;;7.93;100.00
69751;BME280;57335;52.288;6.056;2023-11-21T04:18:15;101193.34;;;8.10;100.00
69751;BME280;57335;52.288;6.056;2023-11-21T04:20:42;101192.44;;;8.03;100.00
69751;BME280;57335;52.288;6.056;2023-11-21T04:23:09;101190.81;;;8.02;100.00
69751;BME280;57335;52.288;6.056;2023-11-21T04:25:36;101185.31;;;7.97;100.00
69751;BME280;57335;52.288;6.056;2023-11-21T04:28:03;101202.16;;;8.09;100.00
69751;BME280;57335;52.288;6.056;2023-11-21T04:30:30;101218.91;;;8.15;100.00
69751;BME280;57335;52.288;6.056;2023-11-21T04:32:58;101198.44;;;8.04;100.00
69751;BME280;57335;52.288;6.056;2023-11-21T04:35:24;101207.28;;;8.17;100.00
69751;BME280;57335;52.288;6.056;2023-11-21T04:37:51;101198.56;;;8.10;100.00
69751;BME280;57335;52.288;6.056;2023-11-21T04:40:18;101214.75;;;8.21;100.00
69751;BME280;57335;52.288;6.056;2023-11-21T04:42:46;101200.00;;;8.13;100.00
69751;BME280;57335;52.288;6.056;2023-11-21T04:45:13;101192.09;;;8.06;100.00
69751;BME280;57335;52.288;6.056;2023-11-21T04:47:40;101223.78;;;8.18;100.00
69751;BME280;57335;52.288;6.056;2023-11-21T04:50:07;101225.03;;;8.22;100.00
69751;BME280;57335;52.288;6.056;2023-11-21T04:52:34;101234.13;;;8.26;100.00
69751;BME280;57335;52.288;6.056;2023-11-21T04:55:01;101213.03;;;8.13;100.00
69751;BME280;57335;52.288;6.056;2023-11-21T04:57:29;101226.47;;;8.25;100.00
69751;BME280;57335;52.288;6.056;2023-11-21T04:59:56;101211.25;;;8.13;100.00
69751;BME280;57335;52.288;6.056;2023-11-21T05:02:23;101232.66;;;8.24;100.00
69751;BME280;57335;52.288;6.056;2023-11-21T05:05:01;101238.25;;;8.21;100.00
69751;BME280;57335;52.288;6.056;2023-11-21T05:07:28;101238.88;;;8.23;100.00
69751;BME280;57335;52.288;6.056;2023-11-21T05:09:58;101246.34;;;8.26;100.00
69751;BME280;57335;52.288;6.056;2023-11-21T05:12:24;101248.59;;;8.29;100.00
69751;BME280;57335;52.288;6.056;2023-11-21T05:14:51;101249.41;;;8.29;100.00
69751;BME280;57335;52.288;6.056;2023-11-21T05:17:17;101252.13;;;8.36;100.00
69751;BME280;57335;52.288;6.056;2023-11-21T05:19:44;101252.75;;;8.38;100.00
69751;BME280;57335;52.288;6.056;2023-11-21T05:22:15;101255.16;;;8.39;100.00
69751;BME280;57335;52.288;6.056;2023-11-21T05:24:41;101258.97;;;8.37;100.00
69751;BME280;57335;52.288;6.056;2023-11-21T05:27:08;101261.88;;;8.42;100.00
69751;BME280;57335;52.288;6.056;2023-11-21T05:29:36;101258.44;;;8.42;100.00
69751;BME280;57335;52.288;6.056;2023-11-21T05:32:04;101274.56;;;8.45;100.00
69751;BME280;57335;52.288;6.056;2023-11-21T05:34:31;101270.59;;;8.49;100.00
69751;BME280;57335;52.288;6.056;2023-11-21T05:36:57;101278.25;;;8.51;100.00
69751;BME280;57335;52.288;6.056;2023-11-21T05:39:25;101279.88;;;8.52;100.00
69751;BME280;57335;52.288;6.056;2023-11-21T05:41:51;101284.75;;;8.55;100.00
69751;BME280;57335;52.288;6.056;2023-11-21T05:44:18;101281.31;;;8.54;100.00
69751;BME280;57335;52.288;6.056;2023-11-21T05:46:45;101282.94;;;8.55;100.00
69751;BME280;57335;52.288;6.056;2023-11-21T05:49:11;101295.00;;;8.56;100.00
69751;BME280;57335;52.288;6.056;2023-11-21T05:51:38;101295.00;;;8.56;100.00
69751;BME280;57335;52.288;6.056;2023-11-21T05:54:05;101299.44;;;8.56;100.00
69751;BME280;57335;52.288;6.056;2023-11-21T05:56:31;101292.28;;;8.50;100.00
69751;BME280;57335;52.288;6.056;2023-11-21T05:58:58;101302.41;;;8.53;100.00
69751;BME280;57335;52.288;6.056;2023-11-21T06:01:26;101304.84;;;8.54;100.00
69751;BME280;57335;52.288;6.056;2023-11-21T06:03:55;101309.44;;;8.52;100.00
69751;BME280;57335;52.288;6.056;2023-11-21T06:06:22;101315.63;;;8.51;100.00
69751;BME280;57335;52.288;6.056;2023-11-21T06:08:50;101318.41;;;8.50;100.00
69751;BME280;57335;52.288;6.056;2023-11-21T06:11:17;101316.81;;;8.49;100.00
69751;BME280;57335;52.288;6.056;2023-11-21T06:13:44;101326.09;;;8.51;100.00
69751;BME280;57335;52.288;6.056;2023-11-21T06:16:10;101322.84;;;8.49;100.00
69751;BME280;57335;52.288;6.056;2023-11-21T06:18:41;101339.16;;;8.51;100.00
69751;BME280;57335;52.288;6.056;2023-11-21T06:21:11;101339.31;;;8.50;100.00
69751;BME280;57335;52.288;6.056;2023-11-21T06:23:38;101334.09;;;8.50;100.00
69751;BME280;57335;52.288;6.056;2023-11-21T06:26:05;101346.63;;;8.54;100.00
69751;BME280;57335;52.288;6.056;2023-11-21T06:28:32;101346.97;;;8.51;100.00
69751;BME280;57335;52.288;6.056;2023-11-21T06:30:59;101353.47;;;8.55;100.00
69751;BME280;57335;52.288;6.056;2023-11-21T06:33:32;101353.47;;;8.55;100.00
69751;BME280;57335;52.288;6.056;2023-11-21T06:35:58;101362.78;;;8.58;100.00
69751;BME280;57335;52.288;6.056;2023-11-21T06:38:25;101342.38;;;8.53;100.00
69751;BME280;57335;52.288;6.056;2023-11-21T06:40:54;101349.97;;;8.63;100.00
69751;BME280;57335;52.288;6.056;2023-11-21T06:43:21;101356.19;;;8.62;100.00
69751;BME280;57335;52.288;6.056;2023-11-21T06:45:48;101370.22;;;8.61;100.00
69751;BME280;57335;52.288;6.056;2023-11-21T06:48:15;101374.81;;;8.59;100.00
69751;BME280;57335;52.288;6.056;2023-11-21T06:50:42;101370.41;;;8.59;100.00
69751;BME280;57335;52.288;6.056;2023-11-21T06:53:09;101369.88;;;8.64;100.00
69751;BME280;57335;52.288;6.056;2023-11-21T06:55:36;101375.28;;;8.63;100.00
69751;BME280;57335;52.288;6.056;2023-11-21T06:58:02;101374.56;;;8.69;100.00
69751;BME280;57335;52.288;6.056;2023-11-21T07:00:29;101389.88;;;8.72;100.00
69751;BME280;57335;52.288;6.056;2023-11-21T07:02:56;101381.31;;;8.63;100.00
69751;BME280;57335;52.288;6.056;2023-11-21T07:05:22;101387.44;;;8.70;100.00
69751;BME280;57335;52.288;6.056;2023-11-21T07:07:49;101395.72;;;8.74;100.00
69751;BME280;57335;52.288;6.056;2023-11-21T07:10:16;101387.97;;;8.66;100.00
69751;BME280;57335;52.288;6.056;2023-11-21T07:12:43;101408.78;;;8.74;100.00
69751;BME280;57335;52.288;6.056;2023-11-21T07:15:10;101411.41;;;8.74;100.00
69751;BME280;57335;52.288;6.056;2023-11-21T07:17:36;101408.16;;;8.72;100.00
69751;BME280;57335;52.288;6.056;2023-11-21T07:20:07;101421.50;;;8.77;100.00
69751;BME280;57335;52.288;6.056;2023-11-21T07:22:33;101410.44;;;8.75;100.00
69751;BME280;57335;52.288;6.056;2023-11-21T07:25:00;101432.41;;;8.81;100.00
69751;BME280;57335;52.288;6.056;2023-11-21T07:27:26;101439.47;;;8.80;100.00
69751;BME280;57335;52.288;6.056;2023-11-21T07:29:53;101443.06;;;8.79;100.00
69751;BME280;57335;52.288;6.056;2023-11-21T07:32:20;101457.22;;;8.85;100.00
69751;BME280;57335;52.288;6.056;2023-11-21T07:34:47;101457.38;;;8.83;100.00
69751;BME280;57335;52.288;6.056;2023-11-21T07:37:13;101452.16;;;8.83;100.00
69751;BME280;57335;52.288;6.056;2023-11-21T07:39:40;101466.84;;;8.84;100.00
69751;BME280;57335;52.288;6.056;2023-11-21T07:42:08;101471.09;;;8.85;100.00
69751;BME280;57335;52.288;6.056;2023-11-21T07:44:35;101464.75;;;8.79;100.00
69751;BME280;57335;52.288;6.056;2023-11-21T07:47:02;101482.97;;;8.88;100.00
69751;BME280;57335;52.288;6.056;2023-11-21T07:49:28;101481.00;;;8.90;100.00
69751;BME280;57335;52.288;6.056;2023-11-21T07:51:55;101488.31;;;8.94;100.00
69751;BME280;57335;52.288;6.056;2023-11-21T07:54:21;101494.53;;;8.93;100.00
69751;BME280;57335;52.288;6.056;2023-11-21T07:56:48;101502.03;;;8.96;100.00
69751;BME280;57335;52.288;6.056;2023-11-21T07:59:15;101503.63;;;8.97;100.00
69751;BME280;57335;52.288;6.056;2023-11-21T08:01:41;101501.66;;;8.99;100.00
69751;BME280;57335;52.288;6.056;2023-11-21T08:04:09;101502.66;;;8.98;100.00
69751;BME280;57335;52.288;6.056;2023-11-21T08:06:36;101507.88;;;8.98;100.00
69751;BME280;57335;52.288;6.056;2023-11-21T08:09:03;101510.75;;;9.04;100.00
69751;BME280;57335;52.288;6.056;2023-11-21T08:11:29;101513.38;;;9.04;100.00
69751;BME280;57335;52.288;6.056;2023-11-21T08:13:58;101523.66;;;9.05;100.00
69751;BME280;57335;52.288;6.056;2023-11-21T08:16:25;101537.53;;;9.06;100.00
69751;BME280;57335;52.288;6.056;2023-11-21T08:18:52;101531.75;;;8.95;100.00
69751;BME280;57335;52.288;6.056;2023-11-21T08:21:18;101550.19;;;9.02;100.00
69751;BME280;57335;52.288;6.056;2023-11-21T08:23:45;101549.06;;;8.96;100.00
69751;BME280;57335;52.288;6.056;2023-11-21T08:26:16;101554.56;;;9.02;100.00
69751;BME280;57335;52.288;6.056;2023-11-21T08:28:42;101549.53;;;9.00;100.00
69751;BME280;57335;52.288;6.056;2023-11-21T08:31:09;101546.38;;;9.05;100.00
69751;BME280;57335;52.288;6.056;2023-11-21T08:33:38;101540.53;;;9.03;100.00
69751;BME280;57335;52.288;6.056;2023-11-21T08:36:09;101559.72;;;9.10;100.00
69751;BME280;57335;52.288;6.056;2023-11-21T08:38:35;101549.16;;;9.03;100.00
69751;BME280;57335;52.288;6.056;2023-11-21T08:41:07;101551.25;;;9.08;100.00
69751;BME280;57335;52.288;6.056;2023-11-21T08:43:35;101565.78;;;9.10;100.00
69751;BME280;57335;52.288;6.056;2023-11-21T08:46:02;101564.31;;;9.08;100.00
69751;BME280;57335;52.288;6.056;2023-11-21T08:48:29;101569.81;;;8.98;100.00
69751;BME280;57335;52.288;6.056;2023-11-21T08:50:56;101575.47;;;9.02;100.00
69751;BME280;57335;52.288;6.056;2023-11-21T08:53:23;101589.56;;;9.01;100.00
69751;BME280;57335;52.288;6.056;2023-11-21T08:55:49;101582.78;;;8.91;100.00
69751;BME280;57335;52.288;6.056;2023-11-21T08:58:16;101589.72;;;8.99;100.00
69751;BME280;57335;52.288;6.056;2023-11-21T09:00:43;101592.19;;;9.01;100.00
69751;BME280;57335;52.288;6.056;2023-11-21T09:03:13;101593.28;;;9.06;100.00
69751;BME280;57335;52.288;6.056;2023-11-21T09:05:39;101606.63;;;9.11;100.00
69751;BME280;57335;52.288;6.056;2023-11-21T09:08:06;101605.28;;;9.15;100.00
69751;BME280;57335;52.288;6.056;2023-11-21T09:10:34;101604.47;;;9.15;100.00
69751;BME280;57335;52.288;6.056;2023-11-21T09:13:03;101615.25;;;9.12;100.00
69751;BME280;57335;52.288;6.056;2023-11-21T09:15:30;101611.50;;;9.14;100.00
69751;BME280;57335;52.288;6.056;2023-11-21T09:17:56;101612.16;;;9.16;100.00
69751;BME280;57335;52.288;6.056;2023-11-21T09:20:23;101623.16;;;9.27;100.00
69751;BME280;57335;52.288;6.056;2023-11-21T09:22:49;101624.88;;;9.34;100.00
69751;BME280;57335;52.288;6.056;2023-11-21T09:25:16;101635.09;;;9.44;100.00
69751;BME280;57335;52.288;6.056;2023-11-21T09:27:44;101631.56;;;9.52;100.00
69751;BME280;57335;52.288;6.056;2023-11-21T09:30:12;101628.53;;;9.48;100.00
69751;BME280;57335;52.288;6.056;2023-11-21T09:32:40;101645.56;;;9.59;100.00
69751;BME280;57335;52.288;6.056;2023-11-21T09:35:08;101646.19;;;9.61;100.00
69751;BME280;57335;52.288;6.056;2023-11-21T09:37:35;101644.22;;;9.63;100.00
69751;BME280;57335;52.288;6.056;2023-11-21T09:40:05;101648.72;;;9.69;100.00
69751;BME280;57335;52.288;6.056;2023-11-21T09:42:40;101661.19;;;9.67;100.00
69751;BME280;57335;52.288;6.056;2023-11-21T09:45:32;101666.41;;;9.67;100.00
69751;BME280;57335;52.288;6.056;2023-11-21T09:48:01;101681.56;;;9.57;100.00
69751;BME280;57335;52.288;6.056;2023-11-21T09:50:28;101681.28;;;9.52;100.00
69751;BME280;57335;52.288;6.056;2023-11-21T09:52:58;101691.56;;;9.53;100.00
69751;BME280;57335;52.288;6.056;2023-11-21T09:55:29;101695.31;;;9.36;100.00
69751;BME280;57335;52.288;6.056;2023-11-21T09:57:56;101701.31;;;9.45;100.00
69751;BME280;57335;52.288;6.056;2023-11-21T10:00:23;101691.94;;;9.50;100.00
69751;BME280;57335;52.288;6.056;2023-11-21T10:02:52;101695.28;;;9.59;100.00
69751;BME280;57335;52.288;6.056;2023-11-21T10:05:19;101695.75;;;9.63;100.00
69751;BME280;57335;52.288;6.056;2023-11-21T10:07:46;101699.25;;;9.55;100.00
69751;BME280;57335;52.288;6.056;2023-11-21T10:10:15;101696.91;;;9.60;100.00
69751;BME280;57335;52.288;6.056;2023-11-21T10:12:50;101695.19;;;9.52;100.00
69751;BME280;57335;52.288;6.056;2023-11-21T10:15:22;101699.59;;;9.52;100.00
69751;BME280;57335;52.288;6.056;2023-11-21T10:17:49;101713.69;;;9.51;100.00
69751;BME280;57335;52.288;6.056;2023-11-21T10:20:16;101727.47;;;9.45;100.00
69751;BME280;57335;52.288;6.056;2023-11-21T10:22:43;101735.72;;;9.56;100.00
69751;BME280;57335;52.288;6.056;2023-11-21T10:25:10;101740.56;;;9.45;100.00
69751;BME280;57335;52.288;6.056;2023-11-21T10:27:37;101732.31;;;9.33;100.00
69751;BME280;57335;52.288;6.056;2023-11-21T10:30:07;101735.03;;;9.39;100.00
69751;BME280;57335;52.288;6.056;2023-11-21T10:32:34;101734.53;;;9.44;100.00
69751;BME280;57335;52.288;6.056;2023-11-21T10:35:01;101747.41;;;9.46;100.00
69751;BME280;57335;52.288;6.056;2023-11-21T10:37:33;101746.13;;;9.42;100.00
69751;BME280;57335;52.288;6.056;2023-11-21T10:39:59;101758.16;;;9.51;100.00
69751;BME280;57335;52.288;6.056;2023-11-21T10:42:26;101751.94;;;9.52;100.00
69751;BME280;57335;52.288;6.056;2023-11-21T10:44:55;101758.91;;;9.59;100.00
69751;BME280;57335;52.288;6.056;2023-11-21T10:47:23;101750.66;;;9.48;100.00
69751;BME280;57335;52.288;6.056;2023-11-21T10:49:50;101756.59;;;9.42;100.00
69751;BME280;57335;52.288;6.056;2023-11-21T10:52:19;101763.16;;;9.37;100.00
69751;BME280;57335;52.288;6.056;2023-11-21T10:54:46;101769.22;;;9.38;100.00
69751;BME280;57335;52.288;6.056;2023-11-21T10:57:17;101774.28;;;9.39;100.00
69751;BME280;57335;52.288;6.056;2023-11-21T10:59:47;101776.94;;;9.31;100.00
69751;BME280;57335;52.288;6.056;2023-11-21T11:02:23;101779.88;;;9.36;100.00
69751;BME280;57335;52.288;6.056;2023-11-21T11:04:52;101778.88;;;9.37;100.00
69751;BME280;57335;52.288;6.056;2023-11-21T11:07:21;101782.91;;;9.48;100.00
69751;BME280;57335;52.288;6.056;2023-11-21T11:09:48;101779.66;;;9.46;100.00
69751;BME280;57335;52.288;6.056;2023-11-21T11:12:15;101782.06;;;9.48;100.00
69751;BME280;57335;52.288;6.056;2023-11-21T11:14:43;101792.09;;;9.44;100.00
69751;BME280;57335;52.288;6.056;2023-11-21T11:17:11;101794.22;;;9.41;100.00
69751;BME280;57335;52.288;6.056;2023-11-21T11:19:39;101799.09;;;9.44;100.00
69751;BME280;57335;52.288;6.056;2023-11-21T11:30:35;101798.00;;;9.38;100.00
69751;BME280;57335;52.288;6.056;2023-11-21T11:33:14;101797.59;;;9.49;100.00
69751;BME280;57335;52.288;6.056;2023-11-21T11:36:20;101800.84;;;9.51;100.00
69751;BME280;57335;52.288;6.056;2023-11-21T11:38:48;101803.63;;;9.50;100.00
69751;BME280;57335;52.288;6.056;2023-11-21T11:41:30;101808.22;;;9.48;100.00
69751;BME280;57335;52.288;6.056;2023-11-21T11:44:01;101807.69;;;9.29;100.00
69751;BME280;57335;52.288;6.056;2023-11-21T11:46:44;101816.50;;;9.36;100.00
69751;BME280;57335;52.288;6.056;2023-11-21T11:49:24;101808.94;;;9.42;100.00
69751;BME280;57335;52.288;6.056;2023-11-21T11:55:02;101827.47;;;9.55;100.00
69751;BME280;57335;52.288;6.056;2023-11-21T11:57:30;101825.78;;;9.62;100.00
69751;BME280;57335;52.288;6.056;2023-11-21T12:02:40;101832.34;;;9.58;100.00
69751;BME280;57335;52.288;6.056;2023-11-21T12:05:11;101845.09;;;9.61;100.00
69751;BME280;57335;52.288;6.056;2023-11-21T12:07:43;101837.41;;;9.59;100.00
69751;BME280;57335;52.288;6.056;2023-11-21T12:10:13;101841.22;;;9.57;100.00
69751;BME280;57335;52.288;6.056;2023-11-21T12:12:45;101832.63;;;9.48;100.00
69751;BME280;57335;52.288;6.056;2023-11-21T12:15:12;101845.69;;;9.48;100.00
69751;BME280;57335;52.288;6.056;2023-11-21T12:17:41;101848.13;;;9.50;100.00
69751;BME280;57335;52.288;6.056;2023-11-21T12:20:09;101863.22;;;9.39;100.00
69751;BME280;57335;52.288;6.056;2023-11-21T12:22:45;101860.03;;;9.29;100.00
69751;BME280;57335;52.288;6.056;2023-11-21T12:27:49;101880.19;;;9.21;100.00
69751;BME280;57335;52.288;6.056;2023-11-21T12:30:18;101885.78;;;9.09;100.00
69751;BME280;57335;52.288;6.056;2023-11-21T12:32:52;101878.13;;;8.99;100.00
69751;BME280;57335;52.288;6.056;2023-11-21T12:35:24;101895.94;;;8.96;100.00
69751;BME280;57335;52.288;6.056;2023-11-21T12:37:51;101884.88;;;8.86;100.00
69751;BME280;57335;52.288;6.056;2023-11-21T12:40:19;101892.28;;;8.82;100.00
69751;BME280;57335;52.288;6.056;2023-11-21T12:42:47;101886.38;;;8.72;100.00
69751;BME280;57335;52.288;6.056;2023-11-21T12:45:25;101895.38;;;8.69;100.00
69751;BME280;57335;52.288;6.056;2023-11-21T12:47:59;101896.03;;;8.71;100.00
69751;BME280;57335;52.288;6.056;2023-11-21T12:50:29;101898.81;;;8.70;100.00
69751;BME280;57335;52.288;6.056;2023-11-21T12:53:02;101901.59;;;8.76;100.00
69751;BME280;57335;52.288;6.056;2023-11-21T12:55:31;101895.81;;;8.89;100.00
69751;BME280;57335;52.288;6.056;2023-11-21T12:58:01;101884.72;;;8.87;100.00
69751;BME280;57335;52.288;6.056;2023-11-21T13:00:40;101897.72;;;9.04;100.00
69751;BME280;57335;52.288;6.056;2023-11-21T13:03:10;101893.50;;;9.03;100.00
69751;BME280;57335;52.288;6.056;2023-11-21T13:05:40;101897.25;;;9.08;100.00
69751;BME280;57335;52.288;6.056;2023-11-21T13:08:14;101905.91;;;9.09;100.00
69751;BME280;57335;52.288;6.056;2023-11-21T13:10:46;101900.50;;;9.10;100.00
69751;BME280;57335;52.288;6.056;2023-11-21T13:13:14;101902.91;;;9.12;100.00